Observations for CHRISTCHURCH IN, New Zealand (NZCH)

NZCH 230500Z AUTO 06010KT 9999 NCD 13/10 Q1025 NOSIG
NZCH 230430Z AUTO 06010KT 9999 NCD 13/10 Q1025 NOSIG
NZCH 230400Z AUTO 07010KT 9999 NCD 14/09 Q1025 NOSIG
NZCH 230330Z AUTO 06009KT 9999 NCD 14/09 Q1025 NOSIG
NZCH 230300Z AUTO 08008KT 050V110 9999 NCD 15/09 Q1024 NOSIG
NZCH 230230Z AUTO 09008KT 9999 NCD 15/09 Q1024 NOSIG
NZCH 230200Z AUTO 10007KT 9999 NCD 15/09 Q1024 NOSIG
NZCH 230130Z AUTO 09005KT 060V120 9999 NCD 14/09 Q1024 NOSIG
NZCH 230100Z AUTO 15002KT 9999 NCD 13/10 Q1025 NOSIG
NZCH 230030Z AUTO 16002KT 9999 NCD 11/10 Q1025 NOSIG
NZCH 230000Z AUTO 18003KT 7000 SCT002/// 10/10 Q1025 BECMG CAVOK
NZCH 222330Z AUTO 19003KT 3000 BR BKN002/// 10/09 Q1025 BECMG CAVOK 
NZCH 222300Z AUTO 19004KT 3500 BR BKN003/// 09/09 Q1025 BECMG CAVOK 
NZCH 222230Z AUTO 24004KT 6000 BKN004/// 09/08 Q1025 BECMG CAVOK
NZCH 222200Z AUTO 25004KT 9999 FEW005/// 09/08 Q1025 NOSIG  
NZCH 222130Z AUTO 24003KT 6000 OVC004/// 08/08 Q1024 BECMG CAVOK
NZCH 222100Z AUTO 23002KT 2700 R20/0900N BR OVC004/// 08/08 Q1024 BECMG CAVOK   
NZCH 222030Z AUTO 26001KT 4700 BR OVC004/// 08/08 Q1024 BECMG FM2100 CAVOK  
NZCH 222000Z AUTO 23003KT 5000 BR OVC003/// 08/07 Q1024 BECMG FM2100 CAVOK  
NZCH 221930Z AUTO 24005KT 8000 BKN005/// 08/07 Q1023 BECMG 9999 NSC 
NZCH 221900Z AUTO 24003KT 7000 OVC007/// 07/07 Q1023 BECMG 9999 NSC 
NZCH 221830Z AUTO 20002KT 1900 BR OVC006/// 07/07 Q1023 BECMG FM1900 9999 NSW NSC   
NZCH 221800Z AUTO 22005KT 0750 R02/1800U R20/1400D FG OVC003/// 07/07 Q1023 BECMG FM1900 9999 NSW NSC   
NZCH 221730Z AUTO 23002KT 2300 BCFG OVC003/// 04/04 Q1022 BECMG 0400 FG BECMG FM1900 9999 NSW   
NZCH 221700Z AUTO 19003KT 9999 FEW004/// 03/03 Q1022 BECMG BKN003 TEMPO 4000 BR 
NZCH 221630Z AUTO 19004KT 9999 NCD 03/02 Q1021 NOSIG
NZCH 221600Z AUTO 25004KT 9999 NCD 03/02 Q1021 NOSIG
NZCH 221530Z AUTO 27003KT 9999 NCD 02/02 Q1020 NOSIG
NZCH 221500Z AUTO 28002KT 9999 NCD 02/02 Q1020 NOSIG
NZCH 221430Z AUTO 27002KT 9999 NCD 02/02 Q1020 NOSIG
NZCH 221400Z AUTO 00000KT 9999 NCD 02/02 Q1020 NOSIG
NZCH 221330Z AUTO 29002KT 9999 NCD 03/03 Q1020 NOSIG
NZCH 221300Z AUTO 28002KT 9999 NCD 02/02 Q1020 NOSIG
NZCH 221230Z AUTO 28002KT 9999 NCD 03/02 Q1020 NOSIG
NZCH 221200Z AUTO 31004KT 9999 NCD 03/03 Q1019 NOSIG
NZCH 221130Z AUTO 02001KT 9999 NCD 03/03 Q1019 NOSIG
NZCH 221100Z AUTO 08001KT 9999 NCD 03/03 Q1019 NOSIG
NZCH 221030Z AUTO 25001KT 4900 BR NCD 03/02 Q1019 TEMPO 2000 BR 
NZCH 221000Z AUTO 31001KT 5000 BR NCD 03/03 Q1019 TEMPO 2000 BR 
NZCH 220930Z AUTO 34003KT 4100 BR NCD 05/05 Q1019 TEMPO 2000 BR 
NZCH 220900Z AUTO 29003KT 7000 NCD 05/05 Q1019 TEMPO 9999   
NZCH 220830Z AUTO 32003KT 5000 BR NCD 06/06 Q1019 TEMPO 9999 NSW
NZCH 220800Z AUTO 32003KT 3800 BR NCD 07/06 Q1018 TEMPO 9999 NSW
NZCH 220730Z AUTO 01002KT 4300 BR NCD 06/06 Q1018 TEMPO 9999 NSW
NZCH 220700Z AUTO 33003KT 7000 NCD 08/07 Q1018 NOSIG
NZCH 220630Z AUTO 35004KT 9999 NCD 08/07 Q1018 NOSIG
NZCH 220600Z AUTO 05005KT 9999 NCD 08/07 Q1018 NOSIG
NZCH 220530Z AUTO 35003KT 9999 NCD 09/07 Q1018 NOSIG
NZCH 220500Z AUTO 35003KT 9999 NCD 10/08 Q1018 NOSIG
NZCH 220430Z AUTO 35003KT 9999 NCD 11/08 Q1017 NOSIG